createdAt,value
2018-07-04T00:00:30.942Z,39.20
2018-07-04T00:03:08.705Z,39.20
2018-07-04T00:05:47.014Z,39.30
2018-07-04T00:08:24.901Z,39.30
2018-07-04T00:11:02.839Z,39.30
2018-07-04T00:13:40.767Z,39.30
2018-07-04T00:16:18.863Z,39.30
2018-07-04T00:18:56.988Z,39.30
2018-07-04T00:21:34.987Z,39.30
2018-07-04T00:24:13.013Z,39.40
2018-07-04T00:26:51.198Z,39.30
2018-07-04T00:29:29.482Z,39.40
2018-07-04T00:32:07.719Z,39.40
2018-07-04T00:34:45.898Z,39.40
2018-07-04T00:37:24.002Z,39.40
2018-07-04T00:40:02.135Z,39.40
2018-07-04T00:42:40.106Z,39.40
2018-07-04T00:45:17.984Z,40.10
2018-07-04T00:47:56.589Z,39.40
2018-07-04T00:50:34.687Z,39.40
2018-07-04T00:53:12.745Z,39.40
2018-07-04T00:55:50.622Z,39.40
2018-07-04T00:58:28.569Z,39.40
2018-07-04T01:01:06.650Z,39.40
2018-07-04T01:03:44.693Z,39.30
2018-07-04T01:06:22.864Z,39.40
2018-07-04T01:09:00.909Z,39.40
2018-07-04T01:11:38.818Z,39.50
2018-07-04T01:14:16.771Z,39.50
2018-07-04T01:16:54.748Z,39.50
2018-07-04T01:19:32.906Z,39.50
2018-07-04T01:22:10.940Z,39.50
2018-07-04T01:24:48.934Z,39.40
2018-07-04T01:27:26.953Z,39.50
2018-07-04T01:30:04.847Z,39.50
2018-07-04T01:32:42.795Z,39.50
2018-07-04T01:35:20.753Z,39.50
2018-07-04T01:37:58.731Z,39.50
2018-07-04T01:40:36.879Z,39.50
2018-07-04T01:43:14.853Z,39.60
2018-07-04T01:45:53.011Z,39.50
2018-07-04T01:48:31.017Z,39.50
2018-07-04T01:51:08.990Z,39.40
2018-07-04T01:53:46.988Z,39.60
2018-07-04T01:56:25.054Z,39.50
2018-07-04T01:59:03.130Z,39.60
2018-07-04T02:01:41.127Z,39.50
2018-07-04T02:04:19.144Z,39.50
2018-07-04T02:06:57.353Z,39.50
2018-07-04T02:09:35.336Z,39.50
2018-07-04T02:12:13.390Z,39.50
2018-07-04T02:14:51.389Z,39.60
2018-07-04T02:17:24.267Z,39.50
2018-07-04T02:20:02.360Z,39.50
2018-07-04T02:22:40.377Z,40.20
2018-07-04T02:25:18.326Z,39.50
2018-07-04T02:27:56.386Z,39.60
2018-07-04T02:30:34.329Z,39.60
2018-07-04T02:33:12.283Z,39.60
2018-07-04T02:35:50.323Z,39.60
2018-07-04T02:38:28.304Z,39.60
2018-07-04T02:41:06.196Z,39.60
2018-07-04T02:43:44.274Z,39.60
2018-07-04T02:46:26.431Z,39.60
2018-07-04T02:49:04.526Z,39.60
2018-07-04T02:51:42.608Z,39.60
2018-07-04T02:54:21.358Z,39.60
2018-07-04T02:56:59.314Z,39.60
2018-07-04T02:59:37.310Z,39.60
2018-07-04T03:02:15.335Z,39.60
2018-07-04T03:04:53.351Z,39.60
2018-07-04T03:07:31.266Z,39.60
2018-07-04T03:10:09.180Z,39.60
2018-07-04T03:12:47.102Z,39.60
2018-07-04T03:15:25.125Z,39.60
2018-07-04T03:18:03.024Z,39.60
2018-07-04T03:20:41.022Z,39.60
2018-07-04T03:23:18.951Z,39.60
2018-07-04T03:25:56.872Z,39.60
2018-07-04T03:28:34.860Z,39.70
2018-07-04T03:31:12.952Z,39.60
2018-07-04T03:33:50.928Z,39.60
2018-07-04T03:36:28.912Z,39.60
2018-07-04T03:39:07.913Z,39.60
2018-07-04T03:41:45.906Z,39.60
2018-07-04T03:44:23.941Z,39.60
2018-07-04T03:47:01.889Z,39.50
2018-07-04T03:49:40.147Z,39.50
2018-07-04T03:52:18.155Z,39.50
2018-07-04T03:54:56.161Z,39.60
2018-07-04T03:57:34.110Z,39.50
2018-07-04T04:00:12.051Z,39.60
2018-07-04T04:02:49.962Z,39.50
2018-07-04T04:05:27.979Z,39.50
2018-07-04T04:08:05.986Z,39.50
2018-07-04T04:10:43.809Z,39.50
2018-07-04T04:13:21.731Z,39.50
2018-07-04T04:15:59.913Z,39.50
2018-07-04T04:18:37.823Z,39.40
2018-07-04T04:21:15.795Z,39.40
2018-07-04T04:23:53.778Z,39.40
2018-07-04T04:26:31.858Z,39.30
2018-07-04T04:29:09.982Z,39.20
2018-07-04T04:31:47.820Z,39.00
2018-07-04T04:34:25.983Z,38.80
2018-07-04T04:37:04.192Z,38.80
2018-07-04T04:39:42.179Z,38.50
2018-07-04T04:42:20.268Z,38.50
2018-07-04T04:44:58.239Z,38.50
2018-07-04T04:47:36.190Z,38.60
2018-07-04T04:50:14.123Z,38.60
2018-07-04T04:52:52.069Z,38.60
2018-07-04T04:55:29.984Z,38.60
2018-07-04T04:58:07.991Z,38.60
2018-07-04T05:00:46.033Z,38.60
2018-07-04T05:03:24.061Z,38.50
2018-07-04T05:06:02.044Z,39.00
2018-07-04T05:08:40.047Z,38.30
2018-07-04T05:11:17.990Z,38.30
2018-07-04T05:13:55.944Z,38.40
2018-07-04T05:16:33.877Z,38.30
2018-07-04T05:19:13.716Z,38.30
2018-07-04T05:21:52.011Z,38.30
2018-07-04T05:24:29.972Z,38.30
2018-07-04T05:27:08.042Z,38.20
2018-07-04T05:29:46.004Z,38.20
2018-07-04T05:32:23.963Z,38.20
2018-07-04T05:35:02.468Z,38.20
2018-07-04T05:37:40.589Z,38.20
2018-07-04T05:40:19.035Z,38.10
2018-07-04T05:42:56.861Z,38.10
2018-07-04T05:45:34.942Z,38.10
2018-07-04T05:48:18.339Z,38.10
2018-07-04T05:51:00.690Z,43.00
2018-07-04T05:56:28.211Z,50.40
2018-07-04T05:59:08.318Z,50.00
2018-07-04T06:01:55.296Z,52.60
2018-07-04T06:04:35.405Z,52.60
2018-07-04T06:09:58.367Z,51.70
2018-07-04T06:12:36.431Z,51.70
2018-07-04T06:15:14.501Z,51.10
2018-07-04T06:17:52.337Z,50.30
2018-07-04T06:20:30.530Z,50.00
2018-07-04T06:23:08.550Z,50.80
2018-07-04T06:25:46.445Z,50.00
2018-07-04T06:28:25.492Z,50.80
2018-07-04T06:31:04.368Z,51.20
2018-07-04T06:33:42.371Z,51.60
2018-07-04T06:36:20.481Z,50.60
2018-07-04T06:38:48.454Z,50.60
2018-07-04T06:41:16.293Z,50.60
2018-07-04T06:43:44.208Z,50.00
2018-07-04T06:46:12.014Z,48.90
2018-07-04T06:48:39.834Z,49.10
2018-07-04T06:51:07.702Z,47.90
2018-07-04T06:53:35.553Z,49.40
2018-07-04T06:56:03.628Z,48.40
2018-07-04T06:58:31.472Z,48.50
2018-07-04T07:00:59.456Z,49.00
2018-07-04T07:03:37.550Z,48.70
2018-07-04T07:06:15.778Z,48.10
2018-07-04T07:08:53.837Z,48.80
2018-07-04T07:11:31.867Z,47.00
2018-07-04T07:14:09.887Z,46.40
2018-07-04T07:16:47.873Z,47.20
2018-07-04T07:19:25.721Z,48.20
2018-07-04T07:22:03.872Z,49.70
2018-07-04T07:24:41.886Z,48.60
2018-07-04T07:27:20.027Z,48.00
2018-07-04T07:29:58.843Z,47.90
2018-07-04T07:32:36.729Z,47.30
2018-07-04T07:35:15.017Z,47.30
2018-07-04T07:37:53.106Z,47.70
2018-07-04T07:40:31.046Z,48.30
2018-07-04T07:43:09.562Z,47.00
2018-07-04T07:45:47.545Z,48.10
2018-07-04T07:48:25.587Z,48.10
2018-07-04T07:51:03.519Z,48.90
2018-07-04T07:53:41.589Z,49.00
2018-07-04T07:56:19.763Z,48.20
2018-07-04T07:58:57.780Z,47.50
2018-07-04T08:01:35.711Z,48.10
2018-07-04T08:04:13.668Z,48.60
2018-07-04T08:06:51.769Z,48.20
2018-07-04T08:09:29.795Z,47.50
2018-07-04T08:12:07.749Z,47.50
2018-07-04T08:14:45.809Z,46.20
2018-07-04T08:17:23.968Z,45.70
2018-07-04T08:20:02.032Z,45.70
2018-07-04T08:22:41.392Z,45.70
2018-07-04T08:25:19.394Z,45.70
2018-07-04T08:27:57.884Z,45.20
2018-07-04T08:30:35.943Z,45.30
2018-07-04T08:33:13.819Z,46.50
2018-07-04T08:35:51.836Z,47.20
2018-07-04T08:38:29.878Z,46.80
2018-07-04T08:41:08.207Z,46.80
2018-07-04T08:43:46.239Z,47.40
2018-07-04T08:46:24.293Z,48.40
2018-07-04T08:49:02.338Z,48.80
2018-07-04T08:51:40.402Z,47.60
2018-07-04T08:54:18.377Z,47.80
2018-07-04T08:56:56.631Z,47.20
2018-07-04T08:59:34.512Z,46.90
2018-07-04T09:02:12.717Z,46.10
2018-07-04T09:04:50.792Z,45.90
2018-07-04T09:07:28.855Z,45.60
2018-07-04T09:10:07.910Z,46.40
2018-07-04T09:12:45.952Z,46.40
2018-07-04T09:15:23.878Z,44.50
2018-07-04T09:18:01.902Z,44.90
2018-07-04T09:20:39.841Z,45.20
2018-07-04T09:23:17.891Z,45.40
2018-07-04T09:25:55.767Z,45.20
2018-07-04T09:28:33.666Z,45.40
2018-07-04T09:31:12.075Z,45.40
2018-07-04T09:33:50.226Z,46.20
2018-07-04T09:36:28.157Z,44.90
2018-07-04T09:39:06.714Z,44.10
2018-07-04T09:41:44.755Z,44.20
2018-07-04T09:44:22.688Z,44.60
2018-07-04T09:47:00.623Z,44.60
2018-07-04T09:49:38.636Z,44.90
2018-07-04T09:52:16.719Z,44.40
2018-07-04T09:54:54.750Z,44.00
2018-07-04T09:57:32.726Z,44.00
2018-07-04T10:00:10.747Z,43.60
2018-07-04T10:02:48.852Z,43.70
2018-07-04T10:05:26.982Z,44.00
2018-07-04T10:08:04.942Z,44.20
2018-07-04T10:10:42.920Z,43.80
2018-07-04T10:13:20.954Z,43.40
2018-07-04T10:15:59.119Z,44.30
2018-07-04T10:18:37.345Z,44.20
2018-07-04T10:21:18.150Z,44.70
2018-07-04T10:23:56.218Z,45.20
2018-07-04T10:26:34.317Z,45.40
2018-07-04T10:29:12.243Z,44.80
2018-07-04T10:31:50.235Z,44.80
2018-07-04T10:34:28.200Z,43.70
2018-07-04T10:37:06.260Z,43.40
2018-07-04T10:39:44.266Z,43.40
2018-07-04T10:42:22.307Z,43.30
2018-07-04T10:45:00.295Z,44.30
2018-07-04T10:47:38.424Z,44.10
2018-07-04T10:50:16.441Z,43.70
2018-07-04T10:52:54.522Z,44.50
2018-07-04T10:55:32.485Z,44.50
2018-07-04T10:58:10.952Z,44.50
2018-07-04T11:00:48.934Z,44.60
2018-07-04T11:03:26.869Z,44.60
2018-07-04T11:06:04.853Z,44.10
2018-07-04T11:08:42.999Z,44.60
2018-07-04T11:11:21.114Z,44.70
2018-07-04T11:13:59.099Z,43.70
2018-07-04T11:16:37.119Z,44.20
2018-07-04T11:19:15.155Z,43.70
2018-07-04T11:21:53.732Z,43.30
2018-07-04T11:24:31.741Z,43.50
2018-07-04T11:27:09.844Z,43.70
2018-07-04T11:29:47.862Z,43.80
2018-07-04T11:32:25.812Z,43.00
2018-07-04T11:35:03.763Z,43.10
2018-07-04T11:37:41.852Z,43.80
2018-07-04T11:40:19.958Z,43.30
2018-07-04T11:42:59.003Z,43.80
2018-07-04T11:45:36.999Z,44.40
2018-07-04T11:48:04.974Z,44.40
2018-07-04T11:50:33.003Z,43.30
2018-07-04T11:53:00.781Z,43.60
2018-07-04T11:55:28.740Z,42.90
2018-07-04T11:57:56.633Z,43.10
2018-07-04T12:00:24.505Z,42.70
2018-07-04T12:02:52.532Z,42.10
2018-07-04T12:05:30.623Z,42.60
2018-07-04T12:07:58.457Z,42.00
2018-07-04T12:10:26.252Z,42.00
2018-07-04T12:12:54.049Z,41.70
2018-07-04T12:15:21.933Z,42.20
2018-07-04T12:17:49.713Z,42.00
2018-07-04T12:20:17.478Z,41.40
2018-07-04T12:22:45.397Z,41.70
2018-07-04T12:25:13.432Z,41.40
2018-07-04T12:27:41.216Z,41.50
2018-07-04T12:30:10.110Z,41.90
2018-07-04T12:32:38.001Z,41.80
2018-07-04T12:35:05.854Z,41.60
2018-07-04T12:37:33.823Z,42.40
2018-07-04T12:40:01.714Z,42.30
2018-07-04T12:42:29.616Z,42.50
2018-07-04T12:44:57.552Z,42.90
2018-07-04T12:47:25.507Z,42.70
2018-07-04T12:49:53.309Z,41.50
2018-07-04T12:52:21.269Z,41.60
2018-07-04T12:54:53.388Z,41.20
2018-07-04T12:57:31.219Z,41.10
2018-07-04T13:00:09.298Z,41.20
2018-07-04T13:02:47.337Z,41.30
2018-07-04T13:05:25.481Z,41.90
2018-07-04T13:08:03.470Z,41.60
2018-07-04T13:10:41.677Z,41.20
2018-07-04T13:13:19.651Z,40.90
2018-07-04T13:15:57.727Z,41.00
2018-07-04T13:18:36.592Z,41.00
2018-07-04T13:21:14.639Z,41.00
2018-07-04T13:23:52.777Z,41.10
2018-07-04T13:26:30.773Z,40.90
2018-07-04T13:29:08.821Z,41.50
2018-07-04T13:31:47.011Z,42.50
2018-07-04T13:34:25.010Z,41.40
2018-07-04T13:37:02.915Z,41.10
2018-07-04T13:39:40.921Z,41.30
2018-07-04T13:42:19.054Z,41.30
2018-07-04T13:44:57.023Z,39.90
2018-07-04T13:47:35.057Z,41.00
2018-07-04T13:50:13.003Z,41.60
2018-07-04T13:52:51.044Z,41.30
2018-07-04T13:55:29.049Z,40.80
2018-07-04T13:58:07.159Z,40.40
2018-07-04T14:00:45.214Z,41.00
2018-07-04T14:03:23.641Z,40.60
2018-07-04T14:06:02.580Z,40.70
2018-07-04T14:08:40.429Z,40.40
2018-07-04T14:11:18.549Z,40.90
2018-07-04T14:13:56.496Z,41.60
2018-07-04T14:16:35.366Z,41.30
2018-07-04T14:19:13.354Z,40.70
2018-07-04T14:21:51.398Z,40.70
2018-07-04T14:24:29.502Z,41.20
2018-07-04T14:27:07.607Z,41.10
2018-07-04T14:29:45.709Z,41.70
2018-07-04T14:32:23.907Z,41.50
2018-07-04T14:35:01.959Z,41.20
2018-07-04T14:37:39.969Z,40.50
2018-07-04T14:40:18.029Z,41.60
2018-07-04T14:42:56.050Z,40.60
2018-07-04T14:45:33.938Z,39.40
2018-07-04T14:48:11.969Z,40.60
2018-07-04T14:50:49.985Z,41.30
2018-07-04T14:53:27.981Z,42.40
2018-07-04T14:56:05.896Z,42.80
2018-07-04T14:58:43.967Z,42.70
2018-07-04T15:01:22.061Z,42.10
2018-07-04T15:04:00.039Z,43.50
2018-07-04T15:06:38.028Z,41.40
2018-07-04T15:09:16.038Z,42.70
2018-07-04T15:11:54.242Z,42.70
2018-07-04T15:14:32.356Z,42.90
2018-07-04T15:17:10.447Z,42.90
2018-07-04T15:19:48.969Z,43.80
2018-07-04T15:22:27.004Z,43.60
2018-07-04T15:25:05.102Z,43.60
2018-07-04T15:27:43.272Z,43.40
2018-07-04T15:30:21.321Z,43.20
2018-07-04T15:32:59.226Z,43.80
2018-07-04T15:35:37.260Z,44.10
2018-07-04T15:38:15.193Z,44.40
2018-07-04T15:40:54.124Z,43.80
2018-07-04T15:43:32.236Z,44.30
2018-07-04T15:46:10.320Z,44.70
2018-07-04T15:48:48.331Z,44.60
2018-07-04T15:51:26.410Z,44.40
2018-07-04T15:54:05.328Z,44.70
2018-07-04T15:56:43.594Z,45.40
2018-07-04T15:59:21.690Z,45.10
2018-07-04T16:01:59.807Z,44.70
2018-07-04T16:04:37.855Z,44.70
2018-07-04T16:07:16.120Z,44.50
2018-07-04T16:09:54.009Z,45.30
2018-07-04T16:12:32.115Z,45.10
2018-07-04T16:15:09.991Z,45.10
2018-07-04T16:17:48.176Z,45.40
2018-07-04T16:20:26.117Z,45.10
2018-07-04T16:23:04.140Z,45.20
2018-07-04T16:25:42.727Z,44.90
2018-07-04T16:28:20.712Z,45.00
2018-07-04T16:30:58.731Z,44.60
2018-07-04T16:33:36.768Z,43.90
2018-07-04T16:36:14.729Z,43.50
2018-07-04T16:38:53.799Z,43.40
2018-07-04T16:41:31.754Z,43.20
2018-07-04T16:44:09.725Z,43.10
2018-07-04T16:46:47.911Z,43.10
2018-07-04T16:49:25.893Z,43.20
2018-07-04T16:52:03.944Z,43.50
2018-07-04T16:54:41.823Z,43.10
2018-07-04T16:57:19.765Z,43.30
2018-07-04T16:59:57.720Z,43.20
2018-07-04T17:02:35.837Z,43.00
2018-07-04T17:05:13.991Z,42.90
2018-07-04T17:07:52.317Z,42.90
2018-07-04T17:10:30.783Z,43.30
2018-07-04T17:13:08.719Z,43.20
2018-07-04T17:15:46.645Z,43.00
2018-07-04T17:18:24.721Z,43.10
2018-07-04T17:21:02.849Z,42.90
2018-07-04T17:23:40.973Z,42.80
2018-07-04T17:26:18.802Z,43.00
2018-07-04T17:28:56.755Z,43.10
2018-07-04T17:31:34.827Z,43.10
2018-07-04T17:34:12.757Z,42.70
2018-07-04T17:36:50.886Z,42.80
2018-07-04T17:39:33.392Z,43.20
2018-07-04T17:42:11.639Z,43.00
2018-07-04T17:44:49.611Z,42.80
2018-07-04T17:47:27.531Z,43.00
2018-07-04T17:50:05.467Z,43.30
2018-07-04T17:52:43.485Z,43.40
2018-07-04T17:55:21.732Z,43.30
2018-07-04T17:58:00.447Z,43.30
2018-07-04T18:00:38.494Z,43.40
2018-07-04T18:03:16.507Z,43.30
2018-07-04T18:05:54.675Z,43.20
2018-07-04T18:08:32.875Z,43.00
2018-07-04T18:11:10.777Z,43.10
2018-07-04T18:13:48.927Z,43.10
2018-07-04T18:16:28.077Z,43.10
2018-07-04T18:19:05.946Z,43.10
2018-07-04T18:21:44.028Z,43.10
2018-07-04T18:24:21.990Z,43.10
2018-07-04T18:27:00.133Z,42.90
2018-07-04T18:29:38.068Z,42.90
2018-07-04T18:32:16.004Z,43.00
2018-07-04T18:34:54.839Z,42.90
2018-07-04T18:37:32.999Z,43.00
2018-07-04T18:40:11.087Z,43.00
2018-07-04T18:42:49.083Z,42.90
2018-07-04T18:45:26.992Z,42.90
2018-07-04T18:48:05.124Z,42.90
2018-07-04T18:50:43.027Z,42.70
2018-07-04T18:53:21.004Z,42.80
2018-07-04T18:55:58.988Z,43.00
2018-07-04T18:58:37.838Z,42.80
2018-07-04T19:01:16.570Z,42.80
2018-07-04T19:03:54.556Z,42.80
2018-07-04T19:06:32.652Z,42.70
2018-07-04T19:09:10.554Z,42.80
2018-07-04T19:11:48.535Z,42.70
2018-07-04T19:14:26.677Z,42.80
2018-07-04T19:17:04.634Z,42.70
2018-07-04T19:19:43.167Z,42.80
2018-07-04T19:22:21.303Z,42.70
2018-07-04T19:24:59.148Z,42.70
2018-07-04T19:27:38.445Z,42.60
2018-07-04T19:30:16.356Z,42.60
2018-07-04T19:32:54.399Z,42.70
2018-07-04T19:35:32.435Z,42.60
2018-07-04T19:38:10.355Z,42.60
2018-07-04T19:40:48.275Z,42.70
2018-07-04T19:43:26.394Z,42.70
2018-07-04T19:46:04.410Z,42.60
2018-07-04T19:48:42.449Z,42.80
2018-07-04T19:51:20.569Z,42.70
2018-07-04T19:53:58.510Z,42.70
2018-07-04T19:56:36.569Z,42.80
2018-07-04T19:59:14.465Z,42.70
2018-07-04T20:01:52.549Z,42.70
2018-07-04T20:04:30.424Z,42.70
2018-07-04T20:07:08.920Z,42.80
2018-07-04T20:09:46.999Z,42.60
2018-07-04T20:12:24.988Z,42.60
2018-07-04T20:15:02.868Z,42.80
2018-07-04T20:17:41.098Z,42.80
2018-07-04T20:20:19.178Z,42.80
2018-07-04T20:22:57.681Z,42.80
2018-07-04T20:25:35.840Z,42.70
2018-07-04T20:28:13.828Z,42.70
2018-07-04T20:30:52.894Z,42.70
2018-07-04T20:33:30.960Z,42.80
2018-07-04T20:36:08.952Z,42.70
2018-07-04T20:38:46.887Z,42.70
2018-07-04T20:41:24.782Z,42.80
2018-07-04T20:44:03.008Z,42.80
2018-07-04T20:46:40.971Z,42.80
2018-07-04T20:49:18.963Z,42.70
2018-07-04T20:51:57.093Z,42.70
2018-07-04T20:54:36.266Z,42.70
2018-07-04T20:57:14.265Z,42.80
2018-07-04T20:59:53.070Z,42.60
2018-07-04T21:02:31.167Z,42.90
2018-07-04T21:05:09.563Z,42.90
2018-07-04T21:07:47.487Z,42.70
2018-07-04T21:10:25.669Z,42.80
2018-07-04T21:13:03.606Z,42.80
2018-07-04T21:15:41.704Z,42.80
2018-07-04T21:18:19.826Z,42.90
2018-07-04T21:20:57.890Z,42.90
2018-07-04T21:23:35.921Z,42.80
2018-07-04T21:26:13.876Z,42.70
2018-07-04T21:28:51.912Z,42.80
2018-07-04T21:31:30.051Z,42.70
2018-07-04T21:34:08.310Z,42.70
2018-07-04T21:36:46.371Z,42.70
2018-07-04T21:39:24.397Z,42.70
2018-07-04T21:42:02.483Z,42.70
2018-07-04T21:44:40.512Z,42.70
2018-07-04T21:47:18.324Z,42.80
2018-07-04T21:49:56.645Z,42.90
2018-07-04T21:52:34.600Z,42.70
2018-07-04T21:55:12.645Z,42.80
2018-07-04T21:57:50.853Z,42.80
2018-07-04T22:00:28.760Z,42.70
2018-07-04T22:03:06.783Z,42.70
2018-07-04T22:05:44.757Z,42.70
2018-07-04T22:08:23.482Z,42.60
2018-07-04T22:11:01.691Z,42.80
2018-07-04T22:13:39.707Z,42.70
2018-07-04T22:16:17.739Z,42.70
2018-07-04T22:18:55.772Z,42.60
2018-07-04T22:21:33.830Z,42.80
2018-07-04T22:24:12.043Z,42.70
2018-07-04T22:26:50.081Z,42.70
2018-07-04T22:29:27.912Z,42.70
2018-07-04T22:32:06.137Z,42.80
2018-07-04T22:34:44.165Z,42.80
2018-07-04T22:37:22.317Z,42.70
2018-07-04T22:40:00.478Z,42.70
2018-07-04T22:42:38.499Z,42.80
2018-07-04T22:45:16.532Z,42.70
2018-07-04T22:47:54.715Z,42.60
2018-07-04T22:50:32.891Z,42.70
2018-07-04T22:53:11.023Z,42.70
2018-07-04T22:55:49.228Z,42.70
2018-07-04T22:58:27.208Z,42.80
2018-07-04T23:01:06.370Z,42.70
2018-07-04T23:03:44.657Z,43.30
2018-07-04T23:06:22.510Z,42.60
2018-07-04T23:09:00.593Z,42.80
2018-07-04T23:11:38.610Z,42.70
2018-07-04T23:14:16.722Z,42.70
2018-07-04T23:16:54.723Z,42.80
2018-07-04T23:19:33.750Z,42.70
2018-07-04T23:22:11.794Z,42.80
2018-07-04T23:24:50.014Z,42.80
2018-07-04T23:27:28.030Z,42.70
2018-07-04T23:30:06.151Z,42.70
2018-07-04T23:32:44.156Z,42.70
2018-07-04T23:35:22.260Z,42.80
2018-07-04T23:38:00.305Z,42.90
2018-07-04T23:40:38.259Z,42.80
2018-07-04T23:43:16.166Z,42.70
2018-07-04T23:45:54.304Z,42.80
2018-07-04T23:48:32.392Z,42.80
2018-07-04T23:51:10.449Z,42.70
2018-07-04T23:53:48.441Z,42.70
